sensor_id;sensor_type;location;lat;lon;timestamp;temperature;humidity
26909;DHT22;14477;51.038;4.588;2022-12-07T00:01:23;8.10;99.90
26909;DHT22;14477;51.038;4.588;2022-12-07T00:03:51;8.00;99.90
26909;DHT22;14477;51.038;4.588;2022-12-07T00:06:17;8.00;99.90
26909;DHT22;14477;51.038;4.588;2022-12-07T00:08:44;7.90;99.90
26909;DHT22;14477;51.038;4.588;2022-12-07T00:11:15;7.80;99.90
26909;DHT22;14477;51.038;4.588;2022-12-07T00:13:41;7.80;99.90
26909;DHT22;14477;51.038;4.588;2022-12-07T00:16:09;7.70;99.90
26909;DHT22;14477;51.038;4.588;2022-12-07T00:18:35;7.70;99.90
26909;DHT22;14477;51.038;4.588;2022-12-07T00:21:13;7.60;99.90
26909;DHT22;14477;51.038;4.588;2022-12-07T00:23:39;7.60;99.90
26909;DHT22;14477;51.038;4.588;2022-12-07T00:26:33;7.50;99.90
26909;DHT22;14477;51.038;4.588;2022-12-07T00:29:05;7.50;99.90
26909;DHT22;14477;51.038;4.588;2022-12-07T00:31:34;7.50;99.90
26909;DHT22;14477;51.038;4.588;2022-12-07T00:34:05;7.40;99.90
26909;DHT22;14477;51.038;4.588;2022-12-07T00:36:31;7.40;99.90
26909;DHT22;14477;51.038;4.588;2022-12-07T00:39:00;7.40;99.90
26909;DHT22;14477;51.038;4.588;2022-12-07T00:41:29;7.40;99.90
26909;DHT22;14477;51.038;4.588;2022-12-07T00:43:56;7.30;99.90
26909;DHT22;14477;51.038;4.588;2022-12-07T00:46:23;7.30;99.90
26909;DHT22;14477;51.038;4.588;2022-12-07T00:48:49;7.30;99.90
26909;DHT22;14477;51.038;4.588;2022-12-07T00:51:17;7.20;99.90
26909;DHT22;14477;51.038;4.588;2022-12-07T00:53:44;7.20;99.90
26909;DHT22;14477;51.038;4.588;2022-12-07T00:56:16;7.20;99.90
26909;DHT22;14477;51.038;4.588;2022-12-07T00:58:42;7.20;99.90
26909;DHT22;14477;51.038;4.588;2022-12-07T01:01:09;7.10;99.90
26909;DHT22;14477;51.038;4.588;2022-12-07T01:03:36;7.10;99.90
26909;DHT22;14477;51.038;4.588;2022-12-07T01:06:03;7.10;99.90
26909;DHT22;14477;51.038;4.588;2022-12-07T01:08:29;7.00;99.90
26909;DHT22;14477;51.038;4.588;2022-12-07T01:11:04;7.00;99.90
26909;DHT22;14477;51.038;4.588;2022-12-07T01:13:31;7.00;99.90
26909;DHT22;14477;51.038;4.588;2022-12-07T01:15:59;7.00;99.90
26909;DHT22;14477;51.038;4.588;2022-12-07T01:18:30;7.10;99.90
26909;DHT22;14477;51.038;4.588;2022-12-07T01:23:25;7.20;99.90
26909;DHT22;14477;51.038;4.588;2022-12-07T01:25:56;7.20;99.90
26909;DHT22;14477;51.038;4.588;2022-12-07T01:28:22;7.20;99.90
26909;DHT22;14477;51.038;4.588;2022-12-07T01:31:06;7.20;99.90
26909;DHT22;14477;51.038;4.588;2022-12-07T01:33:34;7.30;99.90
26909;DHT22;14477;51.038;4.588;2022-12-07T01:36:05;7.30;99.90
26909;DHT22;14477;51.038;4.588;2022-12-07T01:38:32;7.30;99.90
26909;DHT22;14477;51.038;4.588;2022-12-07T01:40:59;7.30;99.90
26909;DHT22;14477;51.038;4.588;2022-12-07T01:43:28;7.40;99.90
26909;DHT22;14477;51.038;4.588;2022-12-07T01:45:54;7.40;99.90
26909;DHT22;14477;51.038;4.588;2022-12-07T01:48:28;7.40;99.90
26909;DHT22;14477;51.038;4.588;2022-12-07T01:50:56;7.50;99.90
26909;DHT22;14477;51.038;4.588;2022-12-07T01:53:28;7.50;99.90
26909;DHT22;14477;51.038;4.588;2022-12-07T01:55:56;7.50;99.90
26909;DHT22;14477;51.038;4.588;2022-12-07T01:58:23;7.50;99.90
26909;DHT22;14477;51.038;4.588;2022-12-07T02:00:49;7.50;99.90
26909;DHT22;14477;51.038;4.588;2022-12-07T02:03:27;7.40;99.90
26909;DHT22;14477;51.038;4.588;2022-12-07T02:05:55;7.40;99.90
26909;DHT22;14477;51.038;4.588;2022-12-07T02:08:21;7.30;99.90
26909;DHT22;14477;51.038;4.588;2022-12-07T02:10:47;7.30;99.90
26909;DHT22;14477;51.038;4.588;2022-12-07T02:13:16;7.20;99.90
26909;DHT22;14477;51.038;4.588;2022-12-07T02:24:35;7.10;99.90
26909;DHT22;14477;51.038;4.588;2022-12-07T02:30:19;7.10;99.90
26909;DHT22;14477;51.038;4.588;2022-12-07T02:32:59;7.10;99.90
26909;DHT22;14477;51.038;4.588;2022-12-07T02:35:45;7.10;99.90
26909;DHT22;14477;51.038;4.588;2022-12-07T02:38:22;7.20;99.90
26909;DHT22;14477;51.038;4.588;2022-12-07T02:40:54;7.10;99.90
26909;DHT22;14477;51.038;4.588;2022-12-07T02:45:52;7.10;99.90
26909;DHT22;14477;51.038;4.588;2022-12-07T02:48:20;7.10;99.90
26909;DHT22;14477;51.038;4.588;2022-12-07T02:50:51;7.10;99.90
26909;DHT22;14477;51.038;4.588;2022-12-07T02:53:41;7.10;99.90
26909;DHT22;14477;51.038;4.588;2022-12-07T03:15:42;7.20;99.90
26909;DHT22;14477;51.038;4.588;2022-12-07T03:18:13;7.20;99.90
26909;DHT22;14477;51.038;4.588;2022-12-07T03:20:40;7.20;99.90
26909;DHT22;14477;51.038;4.588;2022-12-07T03:23:08;7.30;99.90
26909;DHT22;14477;51.038;4.588;2022-12-07T03:25:40;7.30;99.90
26909;DHT22;14477;51.038;4.588;2022-12-07T03:28:08;7.30;99.90
26909;DHT22;14477;51.038;4.588;2022-12-07T03:33:42;7.30;99.90
26909;DHT22;14477;51.038;4.588;2022-12-07T03:39:17;7.30;99.90
26909;DHT22;14477;51.038;4.588;2022-12-07T03:41:45;7.30;99.90
26909;DHT22;14477;51.038;4.588;2022-12-07T03:44:12;7.30;99.90
26909;DHT22;14477;51.038;4.588;2022-12-07T03:54:48;7.20;99.90
26909;DHT22;14477;51.038;4.588;2022-12-07T03:57:17;7.20;99.90
26909;DHT22;14477;51.038;4.588;2022-12-07T03:59:45;7.10;99.90
26909;DHT22;14477;51.038;4.588;2022-12-07T04:02:12;7.00;99.90
26909;DHT22;14477;51.038;4.588;2022-12-07T04:04:38;7.00;99.90
26909;DHT22;14477;51.038;4.588;2022-12-07T04:07:04;6.90;99.90
26909;DHT22;14477;51.038;4.588;2022-12-07T04:09:30;6.90;99.90
26909;DHT22;14477;51.038;4.588;2022-12-07T04:11:56;6.90;99.90
26909;DHT22;14477;51.038;4.588;2022-12-07T04:14:21;6.80;99.90
26909;DHT22;14477;51.038;4.588;2022-12-07T04:16:53;6.70;99.90
26909;DHT22;14477;51.038;4.588;2022-12-07T04:19:21;6.70;99.90
26909;DHT22;14477;51.038;4.588;2022-12-07T04:21:47;6.60;99.90
26909;DHT22;14477;51.038;4.588;2022-12-07T04:24:15;6.60;99.90
26909;DHT22;14477;51.038;4.588;2022-12-07T04:26:41;6.50;99.90
26909;DHT22;14477;51.038;4.588;2022-12-07T04:29:07;6.50;99.90
26909;DHT22;14477;51.038;4.588;2022-12-07T04:31:33;6.50;99.90
26909;DHT22;14477;51.038;4.588;2022-12-07T04:33:59;6.50;99.90
26909;DHT22;14477;51.038;4.588;2022-12-07T04:36:24;6.40;99.90
26909;DHT22;14477;51.038;4.588;2022-12-07T04:38:53;6.40;99.90
26909;DHT22;14477;51.038;4.588;2022-12-07T04:41:19;6.40;99.90
26909;DHT22;14477;51.038;4.588;2022-12-07T04:44:11;6.40;99.90
26909;DHT22;14477;51.038;4.588;2022-12-07T04:46:39;6.30;99.90
26909;DHT22;14477;51.038;4.588;2022-12-07T04:49:05;6.30;99.90
26909;DHT22;14477;51.038;4.588;2022-12-07T04:51:32;6.20;99.90
26909;DHT22;14477;51.038;4.588;2022-12-07T04:53:58;6.20;99.90
26909;DHT22;14477;51.038;4.588;2022-12-07T04:56:24;6.20;99.90
26909;DHT22;14477;51.038;4.588;2022-12-07T04:58:51;6.10;99.90
26909;DHT22;14477;51.038;4.588;2022-12-07T05:01:18;6.10;99.90
26909;DHT22;14477;51.038;4.588;2022-12-07T05:03:44;6.10;99.90
26909;DHT22;14477;51.038;4.588;2022-12-07T05:06:10;6.10;99.90
26909;DHT22;14477;51.038;4.588;2022-12-07T05:08:36;6.20;99.90
26909;DHT22;14477;51.038;4.588;2022-12-07T05:11:03;6.20;99.90
26909;DHT22;14477;51.038;4.588;2022-12-07T05:13:28;6.20;99.90
26909;DHT22;14477;51.038;4.588;2022-12-07T05:15:54;6.20;99.90
26909;DHT22;14477;51.038;4.588;2022-12-07T05:18:20;6.20;99.90
26909;DHT22;14477;51.038;4.588;2022-12-07T05:20:46;6.30;99.90
26909;DHT22;14477;51.038;4.588;2022-12-07T05:23:12;6.30;99.90
26909;DHT22;14477;51.038;4.588;2022-12-07T05:25:38;6.30;99.90
26909;DHT22;14477;51.038;4.588;2022-12-07T05:28:04;6.40;99.90
26909;DHT22;14477;51.038;4.588;2022-12-07T05:30:30;6.40;99.90
26909;DHT22;14477;51.038;4.588;2022-12-07T05:32:56;6.40;99.90
26909;DHT22;14477;51.038;4.588;2022-12-07T05:35:22;6.40;99.90
26909;DHT22;14477;51.038;4.588;2022-12-07T05:37:48;6.40;99.90
26909;DHT22;14477;51.038;4.588;2022-12-07T05:40:15;6.40;99.90
26909;DHT22;14477;51.038;4.588;2022-12-07T05:42:41;6.40;99.90
26909;DHT22;14477;51.038;4.588;2022-12-07T05:45:08;6.50;99.90
26909;DHT22;14477;51.038;4.588;2022-12-07T05:47:34;6.40;99.90
26909;DHT22;14477;51.038;4.588;2022-12-07T05:49:59;6.40;99.90
26909;DHT22;14477;51.038;4.588;2022-12-07T05:52:25;6.40;99.90
26909;DHT22;14477;51.038;4.588;2022-12-07T05:54:52;6.40;99.90
26909;DHT22;14477;51.038;4.588;2022-12-07T05:57:18;6.40;99.90
26909;DHT22;14477;51.038;4.588;2022-12-07T05:59:44;6.50;99.90
26909;DHT22;14477;51.038;4.588;2022-12-07T06:02:12;6.50;99.90
26909;DHT22;14477;51.038;4.588;2022-12-07T06:04:41;6.50;99.90
26909;DHT22;14477;51.038;4.588;2022-12-07T06:07:08;6.50;99.90
26909;DHT22;14477;51.038;4.588;2022-12-07T06:09:35;6.50;99.90
26909;DHT22;14477;51.038;4.588;2022-12-07T06:12:01;6.50;99.90
26909;DHT22;14477;51.038;4.588;2022-12-07T06:14:45;6.60;99.90
26909;DHT22;14477;51.038;4.588;2022-12-07T06:17:12;6.50;99.90
26909;DHT22;14477;51.038;4.588;2022-12-07T06:19:38;6.60;99.90
26909;DHT22;14477;51.038;4.588;2022-12-07T06:22:04;6.60;99.90
26909;DHT22;14477;51.038;4.588;2022-12-07T06:24:31;6.60;99.90
26909;DHT22;14477;51.038;4.588;2022-12-07T06:26:57;6.60;99.90
26909;DHT22;14477;51.038;4.588;2022-12-07T06:29:23;6.50;99.90
26909;DHT22;14477;51.038;4.588;2022-12-07T06:31:49;6.50;99.90
26909;DHT22;14477;51.038;4.588;2022-12-07T06:34:20;6.50;99.90
26909;DHT22;14477;51.038;4.588;2022-12-07T06:36:48;6.50;99.90
26909;DHT22;14477;51.038;4.588;2022-12-07T06:39:18;6.40;99.90
26909;DHT22;14477;51.038;4.588;2022-12-07T06:41:44;6.40;99.90
26909;DHT22;14477;51.038;4.588;2022-12-07T06:44:10;6.40;99.90
26909;DHT22;14477;51.038;4.588;2022-12-07T06:46:36;6.40;99.90
26909;DHT22;14477;51.038;4.588;2022-12-07T06:49:02;6.40;99.90
26909;DHT22;14477;51.038;4.588;2022-12-07T06:51:28;6.40;99.90
26909;DHT22;14477;51.038;4.588;2022-12-07T06:53:55;6.40;99.90
26909;DHT22;14477;51.038;4.588;2022-12-07T06:56:21;6.50;99.90
26909;DHT22;14477;51.038;4.588;2022-12-07T06:58:48;6.50;99.90
26909;DHT22;14477;51.038;4.588;2022-12-07T07:01:16;6.50;99.90
26909;DHT22;14477;51.038;4.588;2022-12-07T07:03:42;6.60;99.90
26909;DHT22;14477;51.038;4.588;2022-12-07T07:06:09;6.50;99.90
26909;DHT22;14477;51.038;4.588;2022-12-07T07:08:36;6.60;99.90
26909;DHT22;14477;51.038;4.588;2022-12-07T07:11:02;6.70;99.90
26909;DHT22;14477;51.038;4.588;2022-12-07T07:13:27;6.70;99.90
26909;DHT22;14477;51.038;4.588;2022-12-07T07:15:54;6.70;99.90
26909;DHT22;14477;51.038;4.588;2022-12-07T07:18:19;6.70;99.90
26909;DHT22;14477;51.038;4.588;2022-12-07T07:20:45;6.70;99.90
26909;DHT22;14477;51.038;4.588;2022-12-07T07:23:11;6.70;99.90
26909;DHT22;14477;51.038;4.588;2022-12-07T07:25:36;6.70;99.90
26909;DHT22;14477;51.038;4.588;2022-12-07T07:28:02;6.60;99.90
26909;DHT22;14477;51.038;4.588;2022-12-07T07:30:28;6.60;99.90
26909;DHT22;14477;51.038;4.588;2022-12-07T07:32:58;6.60;99.90
26909;DHT22;14477;51.038;4.588;2022-12-07T07:35:25;6.50;99.90
26909;DHT22;14477;51.038;4.588;2022-12-07T07:37:51;6.50;99.90
26909;DHT22;14477;51.038;4.588;2022-12-07T07:40:17;6.40;99.90
26909;DHT22;14477;51.038;4.588;2022-12-07T07:42:42;6.30;99.90
26909;DHT22;14477;51.038;4.588;2022-12-07T07:45:09;6.30;99.90
26909;DHT22;14477;51.038;4.588;2022-12-07T07:47:34;6.20;99.90
26909;DHT22;14477;51.038;4.588;2022-12-07T07:50:00;6.20;99.90
26909;DHT22;14477;51.038;4.588;2022-12-07T07:52:26;6.10;99.90
26909;DHT22;14477;51.038;4.588;2022-12-07T07:54:52;6.00;99.90
26909;DHT22;14477;51.038;4.588;2022-12-07T07:57:18;6.00;99.90
26909;DHT22;14477;51.038;4.588;2022-12-07T07:59:44;6.00;99.90
26909;DHT22;14477;51.038;4.588;2022-12-07T08:02:14;6.00;99.90
26909;DHT22;14477;51.038;4.588;2022-12-07T08:04:41;5.90;99.90
26909;DHT22;14477;51.038;4.588;2022-12-07T08:07:06;5.90;99.90
26909;DHT22;14477;51.038;4.588;2022-12-07T08:09:32;5.90;99.90
26909;DHT22;14477;51.038;4.588;2022-12-07T08:11:58;5.90;99.90
26909;DHT22;14477;51.038;4.588;2022-12-07T08:14:24;5.90;99.90
26909;DHT22;14477;51.038;4.588;2022-12-07T08:16:50;5.90;99.90
26909;DHT22;14477;51.038;4.588;2022-12-07T08:19:15;5.90;99.90
26909;DHT22;14477;51.038;4.588;2022-12-07T08:21:41;5.90;99.90
26909;DHT22;14477;51.038;4.588;2022-12-07T08:24:07;6.00;99.90
26909;DHT22;14477;51.038;4.588;2022-12-07T08:26:33;6.00;99.90
26909;DHT22;14477;51.038;4.588;2022-12-07T08:28:59;6.00;99.90
26909;DHT22;14477;51.038;4.588;2022-12-07T08:31:25;6.00;99.90
26909;DHT22;14477;51.038;4.588;2022-12-07T08:33:53;6.10;99.90
26909;DHT22;14477;51.038;4.588;2022-12-07T08:36:19;6.20;99.90
26909;DHT22;14477;51.038;4.588;2022-12-07T08:38:44;6.30;99.90
26909;DHT22;14477;51.038;4.588;2022-12-07T08:41:10;6.30;99.90
26909;DHT22;14477;51.038;4.588;2022-12-07T08:43:36;6.50;99.90
26909;DHT22;14477;51.038;4.588;2022-12-07T08:46:08;6.50;99.90
26909;DHT22;14477;51.038;4.588;2022-12-07T08:48:37;6.60;99.90
26909;DHT22;14477;51.038;4.588;2022-12-07T08:51:04;6.70;99.90
26909;DHT22;14477;51.038;4.588;2022-12-07T08:53:30;6.70;99.90
26909;DHT22;14477;51.038;4.588;2022-12-07T08:55:57;6.70;99.90
26909;DHT22;14477;51.038;4.588;2022-12-07T08:58:23;6.80;99.90
26909;DHT22;14477;51.038;4.588;2022-12-07T09:00:49;6.90;99.90
26909;DHT22;14477;51.038;4.588;2022-12-07T09:03:15;7.00;99.90
26909;DHT22;14477;51.038;4.588;2022-12-07T09:05:41;7.00;99.90
26909;DHT22;14477;51.038;4.588;2022-12-07T09:08:08;7.20;99.90
26909;DHT22;14477;51.038;4.588;2022-12-07T09:10:33;7.30;99.90
26909;DHT22;14477;51.038;4.588;2022-12-07T09:12:59;7.40;99.90
26909;DHT22;14477;51.038;4.588;2022-12-07T09:15:29;7.60;99.90
26909;DHT22;14477;51.038;4.588;2022-12-07T09:17:55;7.70;99.90
26909;DHT22;14477;51.038;4.588;2022-12-07T09:20:21;7.90;99.90
26909;DHT22;14477;51.038;4.588;2022-12-07T09:22:47;8.10;99.90
26909;DHT22;14477;51.038;4.588;2022-12-07T09:25:13;8.30;99.90
26909;DHT22;14477;51.038;4.588;2022-12-07T09:27:39;8.40;99.90
26909;DHT22;14477;51.038;4.588;2022-12-07T09:30:06;8.60;99.90
26909;DHT22;14477;51.038;4.588;2022-12-07T09:32:31;8.80;99.90
26909;DHT22;14477;51.038;4.588;2022-12-07T09:34:57;8.90;99.90
26909;DHT22;14477;51.038;4.588;2022-12-07T09:37:23;9.00;99.90
26909;DHT22;14477;51.038;4.588;2022-12-07T09:39:49;9.10;99.90
26909;DHT22;14477;51.038;4.588;2022-12-07T09:42:34;9.10;99.90
26909;DHT22;14477;51.038;4.588;2022-12-07T09:45:01;9.10;99.90
26909;DHT22;14477;51.038;4.588;2022-12-07T09:47:28;9.10;99.90
26909;DHT22;14477;51.038;4.588;2022-12-07T09:50:04;9.00;99.90
26909;DHT22;14477;51.038;4.588;2022-12-07T09:52:31;9.10;99.90
26909;DHT22;14477;51.038;4.588;2022-12-07T09:54:57;9.00;99.90
26909;DHT22;14477;51.038;4.588;2022-12-07T09:57:32;9.00;99.90
26909;DHT22;14477;51.038;4.588;2022-12-07T10:00:03;9.00;99.90
26909;DHT22;14477;51.038;4.588;2022-12-07T10:02:41;9.10;99.90
26909;DHT22;14477;51.038;4.588;2022-12-07T10:05:18;9.10;99.90
26909;DHT22;14477;51.038;4.588;2022-12-07T10:07:45;9.10;99.90
26909;DHT22;14477;51.038;4.588;2022-12-07T10:10:17;9.20;99.90
26909;DHT22;14477;51.038;4.588;2022-12-07T10:12:57;9.30;99.90
26909;DHT22;14477;51.038;4.588;2022-12-07T10:15:23;9.30;99.90
26909;DHT22;14477;51.038;4.588;2022-12-07T10:17:50;9.30;99.90
26909;DHT22;14477;51.038;4.588;2022-12-07T10:20:20;9.40;99.90
26909;DHT22;14477;51.038;4.588;2022-12-07T10:23:13;9.40;99.90
26909;DHT22;14477;51.038;4.588;2022-12-07T10:25:39;9.50;99.90
26909;DHT22;14477;51.038;4.588;2022-12-07T10:28:16;9.60;99.90
26909;DHT22;14477;51.038;4.588;2022-12-07T10:31:02;9.60;99.90
26909;DHT22;14477;51.038;4.588;2022-12-07T10:33:34;9.60;99.90
26909;DHT22;14477;51.038;4.588;2022-12-07T10:36:09;9.60;99.90
26909;DHT22;14477;51.038;4.588;2022-12-07T10:38:45;9.70;99.90
26909;DHT22;14477;51.038;4.588;2022-12-07T10:41:12;9.70;99.90
26909;DHT22;14477;51.038;4.588;2022-12-07T10:43:50;9.70;99.90
26909;DHT22;14477;51.038;4.588;2022-12-07T10:46:46;9.70;99.90
26909;DHT22;14477;51.038;4.588;2022-12-07T11:00:21;9.70;99.90
26909;DHT22;14477;51.038;4.588;2022-12-07T11:03:03;9.70;99.90
26909;DHT22;14477;51.038;4.588;2022-12-07T11:11:31;10.00;99.90
26909;DHT22;14477;51.038;4.588;2022-12-07T11:17:02;10.50;99.90
26909;DHT22;14477;51.038;4.588;2022-12-07T11:30:20;11.50;99.90
26909;DHT22;14477;51.038;4.588;2022-12-07T11:33:15;11.60;99.90
26909;DHT22;14477;51.038;4.588;2022-12-07T11:38:43;11.80;99.90
26909;DHT22;14477;51.038;4.588;2022-12-07T11:41:09;12.00;99.90
26909;DHT22;14477;51.038;4.588;2022-12-07T11:43:55;12.10;99.90
26909;DHT22;14477;51.038;4.588;2022-12-07T11:46:26;12.20;99.90
26909;DHT22;14477;51.038;4.588;2022-12-07T11:49:03;12.30;99.90
26909;DHT22;14477;51.038;4.588;2022-12-07T11:51:35;12.20;99.90
26909;DHT22;14477;51.038;4.588;2022-12-07T11:54:11;12.10;99.90
26909;DHT22;14477;51.038;4.588;2022-12-07T11:56:38;12.00;99.90
26909;DHT22;14477;51.038;4.588;2022-12-07T11:59:17;11.90;99.90
26909;DHT22;14477;51.038;4.588;2022-12-07T12:02:16;11.80;99.90
26909;DHT22;14477;51.038;4.588;2022-12-07T12:04:52;11.70;99.90
26909;DHT22;14477;51.038;4.588;2022-12-07T12:07:26;11.60;99.90
26909;DHT22;14477;51.038;4.588;2022-12-07T12:09:58;11.50;99.90
26909;DHT22;14477;51.038;4.588;2022-12-07T12:12:55;11.50;99.90
26909;DHT22;14477;51.038;4.588;2022-12-07T12:21:02;11.30;99.90
26909;DHT22;14477;51.038;4.588;2022-12-07T12:23:51;11.30;99.90
26909;DHT22;14477;51.038;4.588;2022-12-07T12:26:20;11.30;99.90
26909;DHT22;14477;51.038;4.588;2022-12-07T12:28:56;11.40;99.90
26909;DHT22;14477;51.038;4.588;2022-12-07T12:33:55;11.60;99.90
26909;DHT22;14477;51.038;4.588;2022-12-07T12:39:08;11.80;99.90
26909;DHT22;14477;51.038;4.588;2022-12-07T12:46:55;11.70;99.90
26909;DHT22;14477;51.038;4.588;2022-12-07T12:57:30;11.40;99.90
26909;DHT22;14477;51.038;4.588;2022-12-07T13:00:00;11.40;99.90
26909;DHT22;14477;51.038;4.588;2022-12-07T13:02:32;11.30;99.90
26909;DHT22;14477;51.038;4.588;2022-12-07T13:15:45;11.20;99.90
26909;DHT22;14477;51.038;4.588;2022-12-07T13:20:51;11.10;99.90
26909;DHT22;14477;51.038;4.588;2022-12-07T13:23:29;11.10;99.90
26909;DHT22;14477;51.038;4.588;2022-12-07T13:28:38;11.10;99.90
26909;DHT22;14477;51.038;4.588;2022-12-07T13:31:18;11.10;99.90
26909;DHT22;14477;51.038;4.588;2022-12-07T13:33:47;11.10;99.90
26909;DHT22;14477;51.038;4.588;2022-12-07T13:36:26;11.10;99.90
26909;DHT22;14477;51.038;4.588;2022-12-07T13:39:00;11.10;99.90
26909;DHT22;14477;51.038;4.588;2022-12-07T13:41:35;11.10;99.90
26909;DHT22;14477;51.038;4.588;2022-12-07T13:44:17;11.00;99.90
26909;DHT22;14477;51.038;4.588;2022-12-07T13:47:25;11.00;99.90
26909;DHT22;14477;51.038;4.588;2022-12-07T13:49:54;11.00;99.90
26909;DHT22;14477;51.038;4.588;2022-12-07T13:52:30;10.90;99.90
26909;DHT22;14477;51.038;4.588;2022-12-07T13:55:01;10.90;99.90
26909;DHT22;14477;51.038;4.588;2022-12-07T13:57:29;10.80;99.90
26909;DHT22;14477;51.038;4.588;2022-12-07T14:00:00;10.70;99.90
26909;DHT22;14477;51.038;4.588;2022-12-07T14:07:53;10.60;99.90
26909;DHT22;14477;51.038;4.588;2022-12-07T14:13:39;10.40;99.90
26909;DHT22;14477;51.038;4.588;2022-12-07T14:16:30;10.40;99.90
26909;DHT22;14477;51.038;4.588;2022-12-07T14:18:59;10.30;99.90
26909;DHT22;14477;51.038;4.588;2022-12-07T14:24:49;10.00;99.90
26909;DHT22;14477;51.038;4.588;2022-12-07T14:27:29;9.90;99.90
26909;DHT22;14477;51.038;4.588;2022-12-07T14:29:56;9.80;99.90
26909;DHT22;14477;51.038;4.588;2022-12-07T14:32:28;9.80;99.90
26909;DHT22;14477;51.038;4.588;2022-12-07T14:35:12;9.70;99.90
26909;DHT22;14477;51.038;4.588;2022-12-07T14:37:44;9.60;99.90
26909;DHT22;14477;51.038;4.588;2022-12-07T14:43:10;9.50;99.90
26909;DHT22;14477;51.038;4.588;2022-12-07T14:45:35;9.50;99.90
26909;DHT22;14477;51.038;4.588;2022-12-07T14:48:06;9.40;99.90
26909;DHT22;14477;51.038;4.588;2022-12-07T14:50:50;9.40;99.90
26909;DHT22;14477;51.038;4.588;2022-12-07T14:53:29;9.40;99.90
26909;DHT22;14477;51.038;4.588;2022-12-07T14:55:58;9.40;99.90
26909;DHT22;14477;51.038;4.588;2022-12-07T14:58:24;9.30;99.90
26909;DHT22;14477;51.038;4.588;2022-12-07T15:00:53;9.30;99.90
26909;DHT22;14477;51.038;4.588;2022-12-07T15:03:18;9.30;99.90
26909;DHT22;14477;51.038;4.588;2022-12-07T15:05:47;9.30;99.90
26909;DHT22;14477;51.038;4.588;2022-12-07T15:08:24;9.20;99.90
26909;DHT22;14477;51.038;4.588;2022-12-07T15:10:50;9.20;99.90
26909;DHT22;14477;51.038;4.588;2022-12-07T15:13:19;9.20;99.90
26909;DHT22;14477;51.038;4.588;2022-12-07T15:16:04;9.10;99.90
26909;DHT22;14477;51.038;4.588;2022-12-07T15:18:30;9.10;99.90
26909;DHT22;14477;51.038;4.588;2022-12-07T15:20:56;9.10;99.90
26909;DHT22;14477;51.038;4.588;2022-12-07T15:23:24;9.00;99.90
26909;DHT22;14477;51.038;4.588;2022-12-07T15:25:53;9.00;99.90
26909;DHT22;14477;51.038;4.588;2022-12-07T15:28:22;9.00;99.90
26909;DHT22;14477;51.038;4.588;2022-12-07T15:30:48;8.90;99.90
26909;DHT22;14477;51.038;4.588;2022-12-07T15:33:14;8.80;99.90
26909;DHT22;14477;51.038;4.588;2022-12-07T15:35:42;8.80;99.90
26909;DHT22;14477;51.038;4.588;2022-12-07T15:38:09;8.70;99.90
26909;DHT22;14477;51.038;4.588;2022-12-07T15:40:48;8.60;99.90
26909;DHT22;14477;51.038;4.588;2022-12-07T15:43:14;8.60;99.90
26909;DHT22;14477;51.038;4.588;2022-12-07T15:45:59;8.50;99.90
26909;DHT22;14477;51.038;4.588;2022-12-07T15:48:25;8.50;99.90
26909;DHT22;14477;51.038;4.588;2022-12-07T15:51:07;8.40;99.90
26909;DHT22;14477;51.038;4.588;2022-12-07T15:53:39;8.40;99.90
26909;DHT22;14477;51.038;4.588;2022-12-07T15:56:20;8.30;99.90
26909;DHT22;14477;51.038;4.588;2022-12-07T15:58:59;8.30;99.90
26909;DHT22;14477;51.038;4.588;2022-12-07T16:01:24;8.30;99.90
26909;DHT22;14477;51.038;4.588;2022-12-07T16:03:57;8.30;99.90
26909;DHT22;14477;51.038;4.588;2022-12-07T16:06:24;8.20;99.90
26909;DHT22;14477;51.038;4.588;2022-12-07T16:08:51;8.20;99.90
26909;DHT22;14477;51.038;4.588;2022-12-07T16:11:20;8.20;99.90
26909;DHT22;14477;51.038;4.588;2022-12-07T16:13:49;8.30;99.90
26909;DHT22;14477;51.038;4.588;2022-12-07T16:16:18;8.30;99.90
26909;DHT22;14477;51.038;4.588;2022-12-07T16:18:45;8.30;99.90
26909;DHT22;14477;51.038;4.588;2022-12-07T16:21:20;8.30;99.90
26909;DHT22;14477;51.038;4.588;2022-12-07T16:23:46;8.40;99.90
26909;DHT22;14477;51.038;4.588;2022-12-07T16:26:18;8.40;99.90
26909;DHT22;14477;51.038;4.588;2022-12-07T16:28:44;8.40;99.90
26909;DHT22;14477;51.038;4.588;2022-12-07T16:31:22;8.40;99.90
26909;DHT22;14477;51.038;4.588;2022-12-07T16:33:53;8.40;99.90
26909;DHT22;14477;51.038;4.588;2022-12-07T16:36:19;8.40;99.90
26909;DHT22;14477;51.038;4.588;2022-12-07T16:38:51;8.50;99.90
26909;DHT22;14477;51.038;4.588;2022-12-07T16:41:17;8.50;99.90
26909;DHT22;14477;51.038;4.588;2022-12-07T16:43:45;8.50;99.90
26909;DHT22;14477;51.038;4.588;2022-12-07T16:46:10;8.50;99.90
26909;DHT22;14477;51.038;4.588;2022-12-07T16:48:37;8.40;99.90
26909;DHT22;14477;51.038;4.588;2022-12-07T16:51:08;8.50;99.90
26909;DHT22;14477;51.038;4.588;2022-12-07T16:53:34;8.50;99.90
26909;DHT22;14477;51.038;4.588;2022-12-07T16:56:01;8.50;99.90
26909;DHT22;14477;51.038;4.588;2022-12-07T16:58:30;8.50;99.90
26909;DHT22;14477;51.038;4.588;2022-12-07T17:00:57;8.50;99.90
26909;DHT22;14477;51.038;4.588;2022-12-07T17:03:23;8.50;99.90
26909;DHT22;14477;51.038;4.588;2022-12-07T17:05:48;8.50;99.90
26909;DHT22;14477;51.038;4.588;2022-12-07T17:08:14;8.50;99.90
26909;DHT22;14477;51.038;4.588;2022-12-07T17:10:42;8.50;99.90
26909;DHT22;14477;51.038;4.588;2022-12-07T17:13:09;8.40;99.90
26909;DHT22;14477;51.038;4.588;2022-12-07T17:15:56;8.40;99.90
26909;DHT22;14477;51.038;4.588;2022-12-07T17:18:22;8.40;99.90
26909;DHT22;14477;51.038;4.588;2022-12-07T17:20:48;8.40;99.90
26909;DHT22;14477;51.038;4.588;2022-12-07T17:23:13;8.40;99.90
26909;DHT22;14477;51.038;4.588;2022-12-07T17:25:39;8.40;99.90
26909;DHT22;14477;51.038;4.588;2022-12-07T17:28:05;8.40;99.90
26909;DHT22;14477;51.038;4.588;2022-12-07T17:30:31;8.40;99.90
26909;DHT22;14477;51.038;4.588;2022-12-07T17:32:56;8.40;99.90
26909;DHT22;14477;51.038;4.588;2022-12-07T17:35:22;8.30;99.90
26909;DHT22;14477;51.038;4.588;2022-12-07T17:37:48;8.40;99.90
26909;DHT22;14477;51.038;4.588;2022-12-07T17:40:14;8.30;99.90
26909;DHT22;14477;51.038;4.588;2022-12-07T17:42:40;8.30;99.90
26909;DHT22;14477;51.038;4.588;2022-12-07T17:45:11;8.20;99.90
26909;DHT22;14477;51.038;4.588;2022-12-07T17:47:37;8.20;99.90
26909;DHT22;14477;51.038;4.588;2022-12-07T17:50:04;8.20;99.90
26909;DHT22;14477;51.038;4.588;2022-12-07T17:52:31;8.20;99.90
26909;DHT22;14477;51.038;4.588;2022-12-07T17:55:15;8.20;99.90
26909;DHT22;14477;51.038;4.588;2022-12-07T17:57:42;8.20;99.90
26909;DHT22;14477;51.038;4.588;2022-12-07T18:00:08;8.10;99.90
26909;DHT22;14477;51.038;4.588;2022-12-07T18:02:35;8.10;99.90
26909;DHT22;14477;51.038;4.588;2022-12-07T18:05:01;8.00;99.90
26909;DHT22;14477;51.038;4.588;2022-12-07T18:07:26;8.00;99.90
26909;DHT22;14477;51.038;4.588;2022-12-07T18:09:52;8.00;99.90
26909;DHT22;14477;51.038;4.588;2022-12-07T18:12:18;7.90;99.90
26909;DHT22;14477;51.038;4.588;2022-12-07T18:14:43;7.80;99.90
26909;DHT22;14477;51.038;4.588;2022-12-07T18:17:09;7.80;99.90
26909;DHT22;14477;51.038;4.588;2022-12-07T18:19:35;7.80;99.90